Hickory Regional Airport
KHKY : rendu visible

Aérodrome :











RETROUVEZ-NOUS SUR...

 
LOGIN :

S'inscrire | Disclaimer

   EN    FR    IT 

 









Légende :    VFR   VFR Marginal   IFR   IFR Intensif   IFR Très Intensif
Visi : 
Plafond : 
>= 8 km
>= 3000ft
5 à 8 km
1000 à 3000 ft
1500m à 5 km
500 à 1000 ft
800 à 1500m
200 à 500 ft
< 800m
< 200 ft
Symboles :   Orages  Brouillard  Fortes neiges  Fortes précipitations  Vent > 20 kt






- Altitude de l'aérodrome : 1190 ft
- Code IATA : HKY


KHKY - Hickory Regional

DERNIER METAR :
  • 190453Z AUTO 00000KT 5SM -RA BR OVC006 11/10 A3006 RMK AO2 RAE05B40 SLP168 P0001 T01110100 401220056

METARs EXPIRÉS :
  • 190423Z AUTO 00000KT 3SM BR OVC005 11/11 A3007 RMK AO2 RAE05 P0000 T01110106
  • 190400Z AUTO 00000KT 3SM -RA BR OVC004 11/11 A3007 RMK AO2 P0000 T01110106
  • 190341Z AUTO 29003KT 1 1/2SM -RA BR OVC004 11/11 A3008 RMK AO2 RAB19 P0001 T01110106
  • 190310Z AUTO 00000KT 3SM BR OVC004 11/11 A3006 RMK AO2 T01110106
  • 190303Z AUTO 00000KT 1 1/2SM BR OVC004 11/11 A3006 RMK AO2 T01110106
  • 190238Z AUTO 00000KT 2SM BR OVC004 11/11 A3008 RMK AO2 T01110106

TAF KHKY
Valide du 19 à 00h jusqu'au 20 à 00h UTC


182340Z 1900/1924 22003KT 3SM -RA BR SCT004 OVC023
TEMPO 1900/1904 2SM RA BR BKN004
FM190400 25003KT 4SM -RA BR OVC005
FM190800 36006KT 5SM BR VCSH OVC021
FM191400 04008KT P6SM OVC035
FM191900 04005KT P6SM BKN070



MET'MAP, la Météo Aéronautique d'un coup d'oeil ! - Copyright ORBIFLY Décembre 2007 - Disclaimer

ORBIFLY MET'MAP TEAM :

Programmation & Développement : Alexandra Zaïnal
Sur une idée originale de : Baudouin d'Aumeries
Assistance à la programmation : Marc-Olivier Méhu
Soutien technique & logistique : Manuel Goepfert

Contact : metmap@orbifly.com




SOURCES & CREDITS :

   NOAA       Earth
Advisory